AirNav   SIMCOM
 
 1502 users online  

73OH Thompson Drag Raceway Airport
Thompson, Ohio, USA

GOING TO THOMPSON?


FAA INFORMATION EFFECTIVE 20 JULY 2017

Location

FAA Identifier: 73OH
Lat/Long: 41-38-49.1960N / 081-00-31.3420W
41-38.819933N / 081-00.522367W
41.6469989 / -81.0087061
(estimated)
Elevation: 1100 ft. / 335 m (estimated)
Variation: 07W (1985)
From city: 3 miles SE of THOMPSON, OH
Time zone: UTC -4 (UTC -5 during Standard Time)
Zip code: 44086

Airport Operations

Airport use: Private use. Permission required prior to landing
Activation date: 02/1972
Control tower: no
ARTCC: CLEVELAND CENTER
FSS: CLEVELAND FLIGHT SERVICE STATION
Attendance: UNATNDD
Wind indicator: no
Segmented circle: no

Airport Communications

WX ASOS at HZY (16 nm NE): 118.325 (440-576-6907)
WX AWOS-3PT at LNN (17 nm W): 119.225 (440-942-0809)

Nearby radio navigation aids

VOR radial/distance  VOR name  Freq  Var
CXRr047/10.4CHARDON VOR/DME112.7005W
JFNr245/13.5JEFFERSON VOR/DME115.2005W
YNGr327/24.2YOUNGSTOWN VORTAC109.0005W
ACOr019/33.5AKRON VOR/DME114.4004W
ERIr241/39.0ERIE VORTAC109.4006W

 
NDB name  Hdg/Dist  Freq  Var  ID
LAKELAND105/16.726308WLQL .-.. --.- .-..

Airport Services

Airframe service: NONE
Powerplant service: NONE

Runway Information

Runway 9/27

Dimensions: 4000 x 60 ft. / 1219 x 18 m
Surface: asphalt
RUNWAY 9  RUNWAY 27
Traffic pattern: leftleft
Obstructions: plinenone

Airport Ownership and Management from official FAA records

Ownership: Privately-owned
Manager: GEORGE EISENHART
8233 SIDLEY RD
THOMPSON, OH 44086
Phone 216-298-3095
OR 216-631-6282

Airport Operational Statistics

Aircraft based on the field: 1
Single engine airplanes: 1
    

Instrument Procedures

There are no published instrument procedures at 73OH.

Some nearby airports with instrument procedures:

2G1 - Concord Airpark (9 nm W)
7G8 - Geauga County Airport (12 nm S)
KHZY - Northeast Ohio Regional Airport (16 nm NE)
KLNN - Willoughby Lost Nation Municipal Airport (17 nm W)
KCGF - Cuyahoga County Airport (22 nm W)
 
Loc | Ops | Rwys | IFR | FBO | Links
Com | Nav | Svcs | Stats | Notes

City of Findlay
 
Area around 73OH (Thompson Drag Raceway Airport)
 
Road maps at: MapQuest Bing Google
 
Aerial photo
No photo
 
Sectional chart

 
Airport distance calculator
Flying to Thompson Drag Raceway Airport? Find the distance to fly.

From to 73OH

Sunrise and sunset
Times for 28-Jul-2017
 Local
(UTC-4)
 Zulu
(UTC)
Morning civil twilight05:4409:44
Sunrise06:1510:15
Sunset20:4600:46
Evening civil twilight21:1701:17

Current date and time
Zulu (UTC)  28-Jul-2017 14:36:31
Local (UTC-4)  28-Jul-2017 10:36:31
 
METAR
KHZY 
16nm NE 
281353Z AUTO VRB04KT 10SM FEW039 22/19 A2991 RMK AO2 SLP122 T02220194 TSNO
KLNN 
16nm W 
281415Z AUTO 04004KT 10SM SCT016 BKN060 BKN075 22/20 A2988 RMK AO1 T02230198
KCGF 
21nm W 
281345Z 07010KT 7SM BKN040 OVC060 23/21 A2989
KYNG 
28nm SE 
281351Z 06004KT 10SM FEW009 FEW095 OVC240 22/19 A2988 RMK AO2 SLP110 T02170189
KPOV 
28nm SW 
281416Z AUTO 07005KT 10SM CLR 22/19 A2988 RMK AO2 T02200186
KBKL 
30nm W 
281353Z 06008KT 3SM HZ BKN045 BKN055 23/19 A2987 RMK AO2 SLP109 T02330189
TAF
NOTAMs
Click for the latest NOTAMs
NOTAMs are issued by the DoD/FAA and will open in a separate window not controlled by AirNav.

 

 
 

Would you like to see your business listed on this page?

 If your business provides an interesting product or service to pilots, flight crews, aircraft, or users of the Thompson Drag Raceway Airport, you should consider listing it here.  To start the listing process, click on the button below
 
Add a business
 

Other Pages about Thompson Drag Raceway Airport

Update a link
 
Copyright © AirNav, LLC. All rights reserved. Privacy Policy  Contact